< < Back
Terminal Aerodrome Forecast


Current Version              Previous Versions:   1  2  3  4  5  6  7  8  9  

Terminal Aerodrome Forecast

745
FTUS44 KOHX 250500
TAFBNA
TAF
KBNA 250537Z 2506/2606 19006KT P6SM SKC
     FM251400 17008G17KT P6SM SCT100 BKN250
     FM251900 20010G18KT 4SM -RA BR OVC025
     FM252100 22010G18KT 2SM -RA BR OVC007=



Latest METAR

365
SAUS70 KWBC 251000 RRB
MTRBNA
METAR KBNA 250953Z 18009KT 10SM BKN200 03/M01 A2984 RMK AO2 SLP104
T00331006 $


USA.gov is the U.S. government's official web portal to all federal, state and local government web resources and services.